Time;durP1;ratioP1;P1;durP2;ratioP2;P2;SDS_P1;SDS_P2;PMS_P1;PMS_P2;Temp;Humidity;BMP_temperature;BMP_pressure;BME280_temperature;BME280_humidity;BME280_pressure;Samples;Min_cycle;Max_cycle;Signal;HPM_P1;HPM_P2
2022/05/29 00:02:52;;;;;;;13.35;7.72;;;;;;;16.36;94.64;97182.66;10331653;28;20076;-68
2022/05/29 00:07:51;;;;;;;14.48;7.78;;;;;;;16.39;94.63;97209.56;10332194;28;20025;-68
2022/05/29 00:12:50;;;;;;;12.23;7.07;;;;;;;16.34;94.86;97226.34;10332134;28;20068;-66
2022/05/29 00:17:49;;;;;;;18.02;8.50;;;;;;;16.42;95.01;97240.91;10331404;28;20148;-66
2022/05/29 00:22:48;;;;;;;20.00;9.20;;;;;;;16.46;94.90;97250.38;10331666;28;20060;-66
2022/05/29 00:27:47;;;;;;;13.40;7.82;;;;;;;16.50;95.13;97262.47;10329824;28;20045;-66
2022/05/29 00:32:46;;;;;;;;;;;;;;;16.52;95.32;97283.38;10331489;28;20029;-66
2022/05/29 00:37:47;;;;;;;16.53;7.90;;;;;;;16.47;95.37;97275.66;10331122;28;20366;-66
2022/05/29 00:42:46;;;;;;;17.17;8.50;;;;;;;16.58;95.25;97292.78;10331047;28;20064;-66
2022/05/29 00:47:45;;;;;;;12.70;8.35;;;;;;;16.58;95.39;97311.13;10330988;28;20026;-66
2022/05/29 00:52:45;;;;;;;19.83;8.68;;;;;;;16.61;95.40;97327.63;10336877;28;20065;-66
2022/05/29 00:57:48;;;;;;;23.25;9.00;;;;;;;16.63;95.47;97307.47;10339114;28;20061;-66
2022/05/29 01:02:47;;;;;;;18.45;7.18;;;;;;;15.91;97.97;97217.25;10338239;28;20077;-65
2022/05/29 01:07:50;;;;;;;17.40;8.52;;;;;;;15.63;100.00;97263.38;10339059;28;20069;-64
2022/05/29 01:13:02;;;;;;;20.38;9.57;;;;;;;15.55;100.00;97270.59;10340920;28;20487;-64
2022/05/29 01:18:13;;;;;;;22.42;11.00;;;;;;;15.50;100.00;97212.31;10341768;28;20085;-65
2022/05/29 01:23:47;;;;;;;20.52;10.60;;;;;;;15.54;100.00;97229.66;10340431;28;20146;-65
2022/05/29 01:28:55;;;;;;;20.58;10.65;;;;;;;15.59;100.00;97217.28;10321506;28;20550;-64
2022/05/29 01:34:07;;;;;;;19.13;10.87;;;;;;;15.67;100.00;97181.31;10341181;28;20079;-63
2022/05/29 01:39:15;;;;;;;21.35;11.10;;;;;;;15.64;100.00;97176.16;10341071;28;20061;-64
2022/05/29 01:44:31;;;;;;;21.35;10.75;;;;;;;15.70;100.00;97175.13;10339315;28;20045;-64
2022/05/29 01:49:37;;;;;;;22.80;11.38;;;;;;;15.59;100.00;97162.34;10340535;28;20061;-64
2022/05/29 01:54:42;;;;;;;18.25;10.85;;;;;;;15.58;100.00;97129.28;10340440;28;20061;-64
2022/05/29 01:59:56;;;;;;;20.25;11.27;;;;;;;15.62;100.00;97175.38;10339881;28;20065;-64
2022/05/29 02:04:59;;;;;;;25.95;11.68;;;;;;;15.38;100.00;97131.63;10339869;28;20073;-64
2022/05/29 02:10:10;;;;;;;23.77;11.25;;;;;;;15.19;100.00;97155.72;10338944;28;20064;-65
2022/05/29 02:15:16;;;;;;;21.08;11.85;;;;;;;15.23;100.00;97132.97;10336106;28;20065;-66
2022/05/29 02:20:25;;;;;;;21.63;11.43;;;;;;;15.11;100.00;97126.34;10336051;28;20073;-66
2022/05/29 02:25:27;;;;;;;25.90;12.63;;;;;;;15.04;100.00;97115.19;10335627;28;20064;-66
2022/05/29 02:30:45;;;;;;;26.63;12.52;;;;;;;15.05;100.00;97087.31;10335679;28;20107;-67
2022/05/29 02:36:19;;;;;;;29.55;15.88;;;;;;;15.19;100.00;97123.50;10335605;28;20060;-65
2022/05/29 02:41:42;;;;;;;20.17;11.68;;;;;;;14.94;100.00;97123.34;10335016;28;20065;-65
2022/05/29 02:46:43;;;;;;;21.75;11.48;;;;;;;14.63;100.00;97138.06;10334844;28;20076;-65
2022/05/29 02:51:56;;;;;;;19.00;9.68;;;;;;;14.50;100.00;97141.06;10334769;28;20483;-65
2022/05/29 02:56:58;;;;;;;16.42;9.60;;;;;;;14.26;100.00;97140.78;10334670;28;20071;-64
2022/05/29 03:02:03;;;;;;;18.98;9.80;;;;;;;14.24;100.00;97142.63;10334027;28;20064;-64
2022/05/29 03:07:23;;;;;;;17.38;9.25;;;;;;;14.20;100.00;97143.56;10332339;28;20072;-64
2022/05/29 03:12:53;;;;;;;22.10;10.75;;;;;;;14.30;100.00;97123.31;10331903;28;20069;-64
2022/05/29 03:17:58;;;;;;;19.60;10.40;;;;;;;14.36;100.00;97105.75;10333376;28;20081;-65
2022/05/29 03:23:42;;;;;;;19.45;11.77;;;;;;;14.50;100.00;97094.06;10333253;28;20065;-65
2022/05/29 03:28:54;;;;;;;19.27;11.40;;;;;;;14.60;100.00;97082.47;10332653;28;20142;-65
2022/05/29 03:33:55;;;;;;;23.42;11.20;;;;;;;14.45;100.00;97034.13;10333179;28;20061;-65
2022/05/29 03:38:54;;;;;;;21.42;12.30;;;;;;;14.80;100.00;97068.88;10332478;28;20068;-65
2022/05/29 03:43:53;;;;;;;22.80;12.68;;;;;;;14.91;100.00;97047.69;10332795;28;20065;-65
2022/05/29 03:48:52;;;;;;;;;;;;;;;15.08;100.00;97052.38;10333198;28;20022;-65
2022/05/29 03:53:51;;;;;;;25.73;11.82;;;;;;;15.22;100.00;97038.03;10347719;28;19912;-65
2022/05/29 03:58:50;;;;;;;23.08;12.10;;;;;;;15.33;100.00;97044.66;10332043;28;20116;-65
2022/05/29 04:03:49;;;;;;;;;;;;;;;15.52;100.00;97058.84;10331079;28;20033;-64
2022/05/29 04:14:06;;;;;;;26.40;11.85;;;;;;;15.40;100.00;97064.47;10331776;28;20069;-64
2022/05/29 04:19:05;;;;;;;21.13;10.27;;;;;;;15.09;100.00;97057.59;10331396;28;20091;-65
2022/05/29 04:24:04;;;;;;;;;;;;;;;15.01;100.00;97089.19;10330146;28;20045;-64
2022/05/29 04:29:04;;;;;;;15.30;8.90;;;;;;;14.74;100.00;97098.66;10330680;28;19920;-64
2022/05/29 04:34:03;;;;;;;20.15;9.40;;;;;;;14.75;100.00;97097.72;10331315;28;20463;-64
2022/05/29 04:39:02;;;;;;;;;;;;;;;14.81;100.00;97110.63;10330116;28;20562;-64
2022/05/29 04:44:00;;;;;;;13.60;9.38;;;;;;;14.83;100.00;97095.78;10330468;28;19939;-65
2022/05/29 04:48:59;;;;;;;;;;;;;;;15.01;100.00;97110.09;10331451;28;20481;-64
2022/05/29 04:53:58;;;;;;;13.18;8.05;;;;;;;15.08;100.00;97115.94;10325578;28;19963;-63
2022/05/29 04:58:57;;;;;;;;;;;;;;;14.95;100.00;97127.69;10330913;28;20029;-64
2022/05/29 05:03:56;;;;;;;14.68;7.85;;;;;;;14.85;100.00;97097.47;10298919;28;20020;-64
2022/05/29 05:08:55;;;;;;;;;;;;;;;15.12;100.00;97132.41;10315985;28;20033;-64
2022/05/29 05:13:54;;;;;;;12.90;7.47;;;;;;;14.89;100.00;97106.94;10345495;28;20307;-64
2022/05/29 05:18:53;;;;;;;;;;;;;;;14.86;100.00;97136.63;10294647;28;20080;-64
2022/05/29 05:23:52;;;;;;;13.05;6.65;;;;;;;14.84;100.00;97143.66;10322035;28;20372;-64
2022/05/29 05:28:51;;;;;;;;;;;;;;;14.91;100.00;97144.34;10324464;28;20519;-64
2022/05/29 05:33:50;;;;;;;12.93;6.88;;;;;;;14.81;100.00;97136.75;10330090;28;19949;-64
2022/05/29 05:38:51;;;;;;;;;;;;;;;14.92;100.00;97132.97;10334200;28;20091;-64
2022/05/29 05:43:50;;;;;;;11.82;6.38;;;;;;;14.87;99.69;97111.34;10337033;28;19956;-64
2022/05/29 05:48:48;;;;;;;;;;;;;;;14.94;99.33;97137.25;10339841;28;20041;-64
2022/05/29 05:53:47;;;;;;;9.50;5.72;;;;;;;14.99;98.44;97114.50;10312079;28;19947;-64
2022/05/29 05:58:46;;;;;;;;;;;;;;;15.06;97.59;97128.25;10337456;28;20033;-64
2022/05/29 06:03:45;;;;;;;10.18;4.95;;;;;;;15.14;97.54;97126.25;10335740;28;20391;-64
2022/05/29 06:08:44;;;;;;;7.93;4.93;;;;;;;15.12;96.97;97101.91;10336537;28;20065;-65
2022/05/29 06:13:43;;;;;;;;;;;;;;;15.05;95.75;97116.06;10327266;28;20049;-64
2022/05/29 06:18:42;;;;;;;8.73;4.88;;;;;;;15.07;95.05;97116.03;10339455;28;19924;-64
2022/05/29 06:23:41;;;;;;;;;;;;;;;15.15;94.72;97127.94;10339428;28;20033;-64
2022/05/29 06:28:41;;;;;;;6.63;4.72;;;;;;;15.14;93.48;97131.47;10339353;28;20392;-65
2022/05/29 06:33:40;;;;;;;9.52;6.97;;;;;;;15.26;93.06;97114.56;10339414;28;20061;-65
2022/05/29 06:38:41;;;;;;;17.95;13.13;;;;;;;15.45;92.88;97101.78;10308684;28;20154;-65
2022/05/29 06:43:40;;;;;;;14.13;9.77;;;;;;;15.86;93.03;97117.97;10296262;28;20078;-64
2022/05/29 06:48:40;;;;;;;8.68;4.65;;;;;;;16.33;91.37;97120.78;10296407;28;20042;-64
2022/05/29 06:53:39;;;;;;;8.68;5.07;;;;;;;16.52;89.63;97123.59;10296471;28;20073;-65
2022/05/29 06:58:39;;;;;;;8.55;4.22;;;;;;;16.63;88.06;97105.75;10298157;28;20146;-65
2022/05/29 07:08:55;;;;;;;8.85;5.15;;;;;;;17.18;85.69;97081.91;10297481;28;20073;-65
2022/05/29 07:13:54;;;;;;;10.90;5.13;;;;;;;17.42;82.82;97100.25;10293597;28;20030;-65
2022/05/29 07:18:54;;;;;;;8.20;4.20;;;;;;;17.80;80.79;97095.28;10317943;28;20088;-65
2022/05/29 07:23:53;;;;;;;5.88;3.83;;;;;;;17.95;78.88;97082.38;10332418;28;20077;-66
2022/05/29 07:28:52;;;;;;;6.68;3.95;;;;;;;18.05;78.05;97087.25;10332940;28;20109;-66
2022/05/29 07:33:51;;;;;;;8.02;4.10;;;;;;;17.27;79.87;97068.44;10293244;28;20069;-66
2022/05/29 07:38:50;;;;;;;7.28;3.97;;;;;;;17.62;79.69;97079.34;10329254;28;20581;-66
2022/05/29 07:43:52;;;;;;;8.30;4.13;;;;;;;17.71;78.12;97084.22;10332799;28;20041;-66
2022/05/29 07:48:52;;;;;;;5.38;3.30;;;;;;;18.14;78.29;97092.97;10332549;28;20061;-66
2022/05/29 07:53:51;;;;;;;6.47;3.95;;;;;;;18.13;77.38;97066.78;10331233;28;20069;-66
2022/05/29 07:58:50;;;;;;;7.53;4.20;;;;;;;18.39;76.08;97090.16;10332057;28;20041;-66
2022/05/29 08:03:49;;;;;;;7.03;3.75;;;;;;;18.30;75.64;97085.28;10331890;28;20037;-66
2022/05/29 08:08:48;;;;;;;10.18;3.92;;;;;;;18.31;76.14;97078.25;10331002;28;20094;-66
2022/05/29 08:13:47;;;;;;;8.18;5.00;;;;;;;18.16;77.17;97098.16;10330253;28;20064;-66
2022/05/29 08:18:47;;;;;;;12.05;4.57;;;;;;;17.87;77.11;97063.47;10329213;28;20098;-67
2022/05/29 08:34:21;;;;;;;9.40;4.60;;;;;;;18.28;77.88;97099.41;10331720;28;20488;-67
2022/05/29 08:39:21;;;;;;;10.07;4.70;;;;;;;18.18;77.27;97059.56;10330651;28;20067;-67
2022/05/29 08:44:52;;;;;;;8.48;4.78;;;;;;;18.35;77.45;97100.84;10331034;28;20072;-67
2022/05/29 08:49:51;;;;;;;8.15;4.10;;;;;;;18.17;77.31;97107.72;10317076;28;20154;-67
2022/05/29 08:54:56;;;;;;;10.40;4.68;;;;;;;18.18;77.52;97094.56;10329901;28;20068;-68
2022/05/29 09:00:01;;;;;;;8.25;4.55;;;;;;;18.06;77.44;97095.06;10329350;28;20524;-68
2022/05/29 09:05:07;;;;;;;8.65;4.60;;;;;;;17.94;78.61;97088.56;10326456;28;20068;-67
2022/05/29 09:10:16;;;;;;;9.50;4.65;;;;;;;17.96;78.44;97059.59;10330214;28;20060;-67
2022/05/29 09:15:23;;;;;;;15.80;5.60;;;;;;;18.15;78.35;97073.69;10317055;28;20076;-67
2022/05/29 09:20:38;;;;;;;9.82;4.65;;;;;;;18.33;77.42;97079.91;10339970;28;20095;-67
2022/05/29 09:25:40;;;;;;;9.88;5.50;;;;;;;18.28;78.56;97081.88;10341454;28;20500;-68
2022/05/29 09:30:40;;;;;;;18.95;14.15;;;;;;;18.02;79.44;97092.63;10304359;28;20049;-68
2022/05/29 09:35:52;;;;;;;14.93;9.07;;;;;;;18.07;79.61;97072.28;10307465;28;20037;-68
2022/05/29 09:41:17;;;;;;;7.10;4.95;;;;;;;18.18;78.92;97084.03;10339756;28;20069;-68
2022/05/29 09:46:23;;;;;;;9.32;5.25;;;;;;;17.91;80.63;97074.69;10339443;28;20037;-68
2022/05/29 09:51:28;;;;;;;8.10;4.88;;;;;;;17.65;81.25;97071.31;10340122;28;20084;-67
2022/05/29 09:56:30;;;;;;;14.55;12.40;;;;;;;17.60;82.10;97044.44;10340532;28;20073;-66
2022/05/29 10:01:42;;;;;;;6.40;4.85;;;;;;;17.69;81.99;97053.69;10340010;28;20069;-67
2022/05/29 10:06:44;;;;;;;8.23;4.78;;;;;;;17.66;81.98;97051.19;10339738;28;20033;-67
2022/05/29 10:11:48;;;;;;;8.63;5.18;;;;;;;17.67;82.32;97045.88;10338076;28;20521;-67
2022/05/29 10:16:49;;;;;;;9.68;4.80;;;;;;;17.70;82.04;97040.50;10335601;28;20480;-67
2022/05/29 10:21:50;;;;;;;8.90;5.50;;;;;;;17.56;83.05;97032.34;10335111;28;20077;-67
2022/05/29 10:26:53;;;;;;;8.48;5.05;;;;;;;17.43;82.65;97036.41;10335187;28;20425;-67
2022/05/29 10:31:52;;;;;;;8.25;4.60;;;;;;;17.20;83.25;97030.28;10331216;28;20064;-67
2022/05/29 10:36:51;;;;;;;14.57;9.93;;;;;;;17.10;83.86;97026.31;10294337;28;20069;-66
2022/05/29 10:41:55;;;;;;;13.27;5.80;;;;;;;17.15;83.76;97032.22;10306391;28;20072;-67
2022/05/29 10:47:07;;;;;;;11.20;5.50;;;;;;;16.76;84.72;96990.88;10335270;28;20065;-66
2022/05/29 10:52:31;;;;;;;9.48;6.60;;;;;;;17.24;84.41;97016.16;10350430;28;20069;-67
2022/05/29 10:57:58;;;;;;;10.80;6.18;;;;;;;17.23;83.30;96998.69;10334899;28;20069;-67
2022/05/29 11:03:19;;;;;;;16.45;10.25;;;;;;;17.27;83.78;97002.06;10333471;28;20103;-67
2022/05/29 11:08:42;;;;;;;9.63;6.28;;;;;;;17.59;83.31;96992.88;10337798;28;20069;-67
2022/05/29 11:13:57;;;;;;;12.45;6.40;;;;;;;17.77;82.35;96989.50;10338764;28;20072;-66
2022/05/29 11:19:14;;;;;;;43.60;24.75;;;;;;;18.09;81.19;96989.91;10345702;28;20050;-66
2022/05/29 11:24:32;;;;;;;12.95;6.07;;;;;;;18.08;79.54;96934.81;10359965;28;20033;-67
2022/05/29 11:29:39;;;;;;;10.30;7.07;;;;;;;18.47;79.53;96979.47;10348645;28;20052;-66
2022/05/29 11:35:42;;;;;;;14.52;9.90;;;;;;;18.50;78.16;96963.59;10307973;28;20026;-66
2022/05/29 11:40:53;;;;;;;12.10;7.53;;;;;;;18.50;77.77;96932.06;10311513;28;20104;-67
2022/05/29 11:51:28;;;;;;;11.05;6.95;;;;;;;19.24;75.40;96904.91;10333136;28;20068;-67
2022/05/29 11:56:37;;;;;;;10.63;6.05;;;;;;;19.58;74.84;96919.03;10294316;28;20096;-67
2022/05/29 12:01:40;;;;;;;24.45;17.88;;;;;;;19.84;73.60;96912.47;10291899;28;20497;-67
2022/05/29 12:06:57;;;;;;;15.93;7.18;;;;;;;20.06;71.28;96883.22;10306226;28;20159;-67
2022/05/29 12:12:06;;;;;;;9.30;6.47;;;;;;;20.41;70.12;96875.22;10292921;28;20493;-67
2022/05/29 12:17:14;;;;;;;10.38;6.30;;;;;;;20.96;69.78;96882.72;10320121;28;20050;-68
2022/05/29 12:22:17;;;;;;;12.23;7.07;;;;;;;21.06;69.46;96810.03;10334762;28;20061;-67
2022/05/29 12:27:23;;;;;;;12.55;6.43;;;;;;;21.84;68.42;96851.22;10334860;28;20049;-68
2022/05/29 12:32:27;;;;;;;12.43;6.55;;;;;;;22.09;67.30;96856.72;10334983;28;20547;-67
2022/05/29 12:38:01;;;;;;;10.30;6.15;;;;;;;21.81;64.55;96854.88;10334472;28;20472;-68
2022/05/29 12:43:09;;;;;;;11.48;6.43;;;;;;;21.58;65.63;96853.63;10334123;28;20069;-68
2022/05/29 12:48:33;;;;;;;11.13;6.10;;;;;;;21.56;65.63;96834.38;10333412;28;20061;-68
2022/05/29 12:53:55;;;;;;;13.63;6.78;;;;;;;21.34;66.18;96803.16;10333866;28;20034;-68
2022/05/29 12:59:10;;;;;;;9.45;6.60;;;;;;;21.29;65.54;96815.78;10333268;28;20045;-67
2022/05/29 13:04:37;;;;;;;8.80;6.40;;;;;;;21.00;67.22;96815.66;10332517;28;20069;-68
2022/05/29 13:09:36;;;;;;;10.25;7.20;;;;;;;20.52;69.68;96830.69;10333247;28;20081;-67
2022/05/29 13:14:36;;;;;;;11.00;7.65;;;;;;;19.41;74.67;96804.94;10330324;28;20072;-67
2022/05/29 13:19:53;;;;;;;11.25;7.07;;;;;;;19.32;75.44;96821.22;10328743;28;20119;-68
2022/05/29 13:25:02;;;;;;;11.65;7.43;;;;;;;19.33;75.41;96793.97;10335759;28;20195;-68
2022/05/29 13:30:03;;;;;;;;;;;;;;;19.76;74.15;96786.47;10331080;28;20065;-67
2022/05/29 13:35:02;;;;;;;13.18;7.18;;;;;;;19.98;72.58;96780.09;10330154;28;19986;-68
2022/05/29 13:40:07;;;;;;;9.57;6.88;;;;;;;20.17;72.09;96791.31;10325499;28;20401;-68
2022/05/29 13:45:24;;;;;;;12.25;7.30;;;;;;;19.81;71.96;96773.06;10330214;28;20057;-67
2022/05/29 13:50:39;;;;;;;12.75;7.80;;;;;;;19.74;73.22;96774.34;10328913;28;20075;-68
2022/05/29 13:55:41;;;;;;;13.38;8.80;;;;;;;19.40;74.96;96786.63;10330112;28;20156;-67
2022/05/29 14:06:25;;;;;;;14.23;9.55;;;;;;;19.06;77.32;96766.44;10336129;28;20563;-68
2022/05/29 14:12:03;;;;;;;14.18;9.32;;;;;;;18.79;78.71;96759.03;10337272;28;20077;-68
2022/05/29 14:17:26;;;;;;;15.52;9.90;;;;;;;18.54;79.79;96754.94;10330291;28;20081;-68
2022/05/29 14:22:54;;;;;;;16.13;10.45;;;;;;;18.22;81.60;96747.78;10336447;28;20534;-67
2022/05/29 14:28:25;;;;;;;20.23;10.27;;;;;;;18.09;82.45;96721.25;10335307;28;20073;-67
2022/05/29 14:33:52;;;;;;;16.60;10.88;;;;;;;17.95;83.96;96729.78;10336515;28;20061;-67
2022/05/29 14:39:26;;;;;;;18.90;12.05;;;;;;;17.92;84.86;96722.06;10326610;28;20065;-68
2022/05/29 14:44:37;;;;;;;20.88;11.35;;;;;;;17.41;88.05;96702.53;10329360;28;20057;-68
2022/05/29 14:49:48;;;;;;;24.10;13.55;;;;;;;17.45;89.00;96704.94;10293284;28;20322;-66
2022/05/29 14:54:50;;;;;;;25.92;16.02;;;;;;;16.72;95.21;96695.84;10290839;28;20077;-64
2022/05/29 14:59:50;;;;;;;27.48;17.38;;;;;;;16.50;96.95;96712.47;10291219;28;20061;-64
2022/05/29 15:04:50;;;;;;;32.70;18.15;;;;;;;16.45;98.92;96690.88;10291454;28;20061;-65
2022/05/29 15:15:37;;;;;;;29.98;17.98;;;;;;;16.09;100.00;96653.97;10316469;28;20079;-65
2022/05/29 15:26:12;;;;;;;33.15;20.63;;;;;;;16.27;100.00;96697.72;10333791;28;20068;-65
2022/05/29 15:31:21;;;;;;;34.45;20.20;;;;;;;16.43;100.00;96734.59;10333590;28;20085;-65
2022/05/29 15:36:40;;;;;;;32.10;18.20;;;;;;;16.05;100.00;96611.38;10333659;28;20064;-65
2022/05/29 15:42:03;;;;;;;34.63;20.03;;;;;;;16.29;100.00;96698.50;10328467;28;20132;-64
2022/05/29 15:47:23;;;;;;;33.55;18.77;;;;;;;16.50;100.00;96741.28;10333038;28;20081;-64
2022/05/29 15:52:31;;;;;;;;;;;;;;;16.60;100.00;96670.19;10331781;28;20464;-65
2022/05/29 15:57:49;;;;;;;34.63;20.30;;;;;;;16.37;100.00;96640.59;10344087;28;19960;-65
2022/05/29 16:03:12;;;;;;;34.35;19.98;;;;;;;16.45;100.00;96628.03;10328011;28;20071;-65
2022/05/29 16:08:26;;;;;;;32.53;19.23;;;;;;;16.51;100.00;96579.78;10319611;28;20566;-65
2022/05/29 16:13:47;;;;;;;35.13;20.25;;;;;;;16.58;100.00;96570.72;10324825;28;20475;-65
2022/05/29 16:19:03;;;;;;;33.22;19.58;;;;;;;16.35;100.00;96631.97;10330954;28;20069;-65
2022/05/29 16:24:30;;;;;;;30.30;17.85;;;;;;;15.95;100.00;96709.50;10329586;28;20075;-65
2022/05/29 16:29:38;;;;;;;28.58;17.23;;;;;;;15.77;100.00;96741.56;10299941;28;20072;-64
2022/05/29 16:34:41;;;;;;;24.65;11.70;;;;;;;15.51;100.00;96746.00;10314709;28;20754;-65
2022/05/29 16:50:23;;;;;;;0.60;0.50;;;;;;;13.09;100.00;96775.34;10320954;28;20076;-61
2022/05/29 16:55:29;;;;;;;;;;;;;;;13.14;100.00;96813.41;10320643;28;20444;-61
2022/05/29 17:00:30;;;;;;;0.50;0.50;;;;;;;13.26;100.00;96804.41;10320580;28;20003;-60
2022/05/29 17:05:34;;;;;;;0.25;0.25;;;;;;;13.43;100.00;96816.97;10316977;28;20124;-60
2022/05/29 17:10:57;;;;;;;1.08;0.60;;;;;;;13.60;100.00;96768.78;10311051;28;20502;-61
2022/05/29 17:15:56;;;;;;;0.45;0.45;;;;;;;13.52;100.00;96693.38;10318152;28;20128;-61
2022/05/29 17:21:09;;;;;;;0.40;0.40;;;;;;;13.50;100.00;96708.22;10320421;28;20130;-61
2022/05/29 17:26:16;;;;;;;0.95;0.57;;;;;;;13.85;100.00;96748.91;10317989;28;20154;-61
2022/05/29 17:31:41;;;;;;;0.47;0.47;;;;;;;13.98;100.00;96763.28;10316903;28;20916;-61
2022/05/29 17:36:49;;;;;;;0.28;0.28;;;;;;;14.11;100.00;96757.69;10326646;28;20128;-61
2022/05/29 17:41:48;;;;;;;0.20;0.20;;;;;;;13.87;100.00;96748.84;10320323;28;20160;-61
2022/05/29 17:47:05;;;;;;;0.93;0.93;;;;;;;14.04;100.00;96764.00;10326900;28;20112;-61
2022/05/29 17:52:11;;;;;;;0.68;0.68;;;;;;;14.12;100.00;96798.50;10326738;28;20479;-61
2022/05/29 17:57:15;;;;;;;0.73;0.73;;;;;;;14.13;100.00;96808.91;10322334;28;20073;-62
2022/05/29 18:02:14;;;;;;;2.10;1.95;;;;;;;14.09;100.00;96803.81;10324621;28;20147;-62
2022/05/29 18:07:13;;;;;;;1.50;1.40;;;;;;;14.09;100.00;96830.75;10325681;28;20079;-62
2022/05/29 18:12:20;;;;;;;0.73;0.73;;;;;;;14.17;100.00;96833.13;10319084;28;20037;-62
2022/05/29 18:17:19;;;;;;;0.32;0.32;;;;;;;14.05;100.00;96784.78;10325543;28;20124;-62
2022/05/29 18:22:18;;;;;;;1.27;1.17;;;;;;;14.37;100.00;96833.38;10325061;28;20336;-62
2022/05/29 18:27:18;;;;;;;;;;;;;;;14.45;100.00;96838.38;10320004;28;20111;-62
2022/05/29 18:32:17;;;;;;;2.42;1.27;;;;;;;13.76;100.00;96717.88;10326676;28;20004;-62
2022/05/29 18:37:16;;;;;;;1.05;1.05;;;;;;;14.32;100.00;96811.81;10326687;28;20029;-62
2022/05/29 18:42:15;;;;;;;1.00;0.98;;;;;;;14.29;100.00;96792.75;10314583;28;20120;-62
2022/05/29 18:47:14;;;;;;;1.48;1.38;;;;;;;14.25;100.00;96776.38;10325333;28;20066;-62
2022/05/29 18:52:13;;;;;;;;;;;;;;;14.54;100.00;96816.34;10321746;28;20123;-62
2022/05/29 18:57:16;;;;;;;0.60;0.60;;;;;;;14.28;100.00;96784.09;10319258;28;19913;-62
2022/05/29 19:02:19;;;;;;;0.30;0.30;;;;;;;14.44;100.00;96814.94;10319592;28;20116;-62
2022/05/29 19:07:18;;;;;;;0.68;0.68;;;;;;;14.47;100.00;96831.34;10323154;28;20551;-62
2022/05/29 19:12:17;;;;;;;;;;;;;;;14.49;100.00;96839.13;10320332;28;20088;-62
2022/05/29 19:22:33;;;;;;;1.75;1.60;;;;;;;14.22;100.00;96826.03;10323993;28;20481;-62
2022/05/29 19:27:33;;;;;;;;;;;;;;;14.16;100.00;96841.88;10320693;28;20562;-62
2022/05/29 19:32:32;;;;;;;2.17;1.98;;;;;;;14.00;100.00;96799.72;10323410;28;20357;-62
2022/05/29 19:37:33;;;;;;;;;;;;;;;14.25;100.00;96841.59;10323496;28;20617;-62
2022/05/29 19:42:35;;;;;;;0.82;0.82;;;;;;;14.27;100.00;96842.41;10323750;28;20498;-62
2022/05/29 19:47:38;;;;;;;0.73;0.73;;;;;;;14.24;100.00;96839.91;10313561;28;20147;-62
2022/05/29 19:52:37;;;;;;;1.50;1.40;;;;;;;14.32;100.00;96858.78;10314918;28;20120;-62
2022/05/29 19:57:36;;;;;;;0.82;0.82;;;;;;;14.20;100.00;96840.88;10311043;28;20139;-62
2022/05/29 20:02:35;;;;;;;;;;;;;;;14.34;100.00;96870.03;10323301;28;20065;-62
2022/05/29 20:07:34;;;;;;;0.77;0.77;;;;;;;14.27;100.00;96860.69;10322354;28;19999;-62
2022/05/29 20:12:33;;;;;;;;;;;;;;;14.18;100.00;96874.84;10316892;28;20065;-62
2022/05/29 20:17:33;;;;;;;3.67;1.52;;;;;;;14.07;100.00;96863.00;10306854;28;20003;-62
2022/05/29 20:22:32;;;;;;;1.45;1.23;;;;;;;13.96;100.00;96861.59;10324219;28;20081;-62
2022/05/29 20:27:31;;;;;;;2.40;2.00;;;;;;;13.92;100.00;96891.25;10321390;28;20105;-62
2022/05/29 20:32:30;;;;;;;0.35;0.35;;;;;;;13.77;100.00;96878.63;10329852;28;20148;-62
2022/05/29 20:37:29;;;;;;;0.35;0.35;;;;;;;13.71;100.00;96890.09;10323159;28;20044;-62
2022/05/29 20:42:29;;;;;;;0.75;0.75;;;;;;;13.50;100.00;96888.88;10331675;28;20034;-62
2022/05/29 20:47:29;;;;;;;1.02;1.02;;;;;;;13.31;100.00;96890.28;10329005;28;20065;-62
2022/05/29 20:52:28;;;;;;;4.68;1.50;;;;;;;13.26;100.00;96881.72;10296016;28;20057;-62
2022/05/29 20:57:28;;;;;;;;;;;;;;;13.47;100.00;96924.59;10308677;28;20069;-62
2022/05/29 21:02:27;;;;;;;0.60;0.60;;;;;;;13.50;100.00;96930.59;10337583;28;19960;-62
2022/05/29 21:07:26;;;;;;;0.70;0.70;;;;;;;13.59;100.00;96933.91;10320711;28;20531;-63
2022/05/29 21:12:25;;;;;;;0.80;0.80;;;;;;;13.57;100.00;96902.66;10335869;28;20064;-63
2022/05/29 21:17:24;;;;;;;0.80;0.75;;;;;;;13.64;100.00;96900.75;10354881;28;20111;-63
2022/05/29 21:22:23;;;;;;;0.55;0.55;;;;;;;13.91;100.00;96931.28;10314937;28;20444;-62
2022/05/29 21:27:22;;;;;;;1.00;0.80;;;;;;;14.01;100.00;96947.53;10299224;28;20036;-63
2022/05/29 21:32:21;;;;;;;0.55;0.55;;;;;;;14.05;100.00;96932.63;10298318;28;20541;-63
2022/05/29 21:42:37;;;;;;;0.40;0.40;;;;;;;14.32;100.00;96952.72;10338934;28;20065;-63
2022/05/29 21:47:36;;;;;;;1.13;0.95;;;;;;;14.34;100.00;96934.44;10320188;28;20029;-63
2022/05/29 21:52:35;;;;;;;;;;;;;;;14.47;100.00;96946.19;10338693;28;20579;-63
2022/05/29 21:57:34;;;;;;;2.23;1.00;;;;;;;14.52;100.00;96946.06;10338281;28;19964;-62
2022/05/29 22:02:34;;;;;;;;;;;;;;;14.51;100.00;96955.66;10334975;28;20045;-63
2022/05/29 22:07:36;;;;;;;0.30;0.30;;;;;;;14.49;100.00;96972.28;10317310;28;19956;-63
2022/05/29 22:12:36;;;;;;;0.47;0.47;;;;;;;14.14;100.00;96948.03;10331762;28;20433;-63
2022/05/29 22:17:35;;;;;;;1.02;1.00;;;;;;;14.04;100.00;96977.91;10331568;28;20189;-63
2022/05/29 22:22:34;;;;;;;0.65;0.65;;;;;;;13.97;100.00;96961.56;10296554;28;20066;-63
2022/05/29 22:27:33;;;;;;;0.52;0.52;;;;;;;13.85;100.00;96934.06;10298587;28;20064;-63
2022/05/29 22:32:46;;;;;;;0.85;0.85;;;;;;;14.02;100.00;96951.00;10298356;28;20065;-63
2022/05/29 22:37:45;;;;;;;0.55;0.55;;;;;;;14.05;100.00;96943.06;10313127;28;20076;-63
2022/05/29 22:42:45;;;;;;;1.00;1.00;;;;;;;14.22;100.00;96950.41;10325176;28;20060;-61
2022/05/29 22:48:20;;;;;;;1.13;1.10;;;;;;;14.29;100.00;96945.00;10337301;28;20067;-61
2022/05/29 22:53:54;;;;;;;1.13;1.02;;;;;;;14.35;100.00;96942.19;10353595;28;20160;-61
2022/05/29 22:58:55;;;;;;;0.43;0.43;;;;;;;14.32;100.00;96941.44;10336665;28;20119;-61
2022/05/29 23:04:03;;;;;;;0.45;0.45;;;;;;;14.15;100.00;96945.41;10337122;28;20068;-61
2022/05/29 23:09:02;;;;;;;0.40;0.40;;;;;;;13.94;100.00;96954.66;10337198;28;20060;-61
2022/05/29 23:14:01;;;;;;;1.00;0.90;;;;;;;13.88;100.00;96954.81;10311683;28;21128;-62
2022/05/29 23:19:00;;;;;;;;;;;;;;;13.95;100.00;96953.75;10296825;28;20487;-62
2022/05/29 23:24:04;;;;;;;0.55;0.55;;;;;;;14.02;100.00;96945.78;10296492;28;19919;-62
2022/05/29 23:29:04;;;;;;;1.95;0.82;;;;;;;14.04;100.00;96942.22;10295514;28;20061;-62
2022/05/29 23:34:03;;;;;;;;;;;;;;;14.11;100.00;96946.38;10296036;28;20069;-62
2022/05/29 23:39:02;;;;;;;0.83;0.67;;;;;;;14.09;100.00;96945.56;10301369;28;19983;-62
2022/05/29 23:44:01;;;;;;;;;;;;;;;14.03;100.00;96934.44;10329931;28;20743;-62
2022/05/29 23:49:00;;;;;;;0.30;0.30;;;;;;;13.94;100.00;96941.63;10335680;28;20415;-62
2022/05/29 23:53:59;;;;;;;3.92;1.38;;;;;;;13.70;100.00;96898.84;10336300;28;20580;-62
2022/05/29 23:58:58;;;;;;;0.38;0.38;;;;;;;13.81;100.00;96922.00;10335538;28;20072;-62
